Time,TemperatureF,DewpointF,PressureIn,WindDirection,WindDirectionDegrees,WindSpeedMPH,WindSpeedGustMPH,Humidity,HourlyPrecipIn,Conditions,Clouds,dailyrainin,SoftwareType,DateUTC
2013-02-21 00:01:00,40.0,34.0,29.85,North,4,6.0,13.0,78,0.00,,,0.16,,2013-02-21 06:01:00,
2013-02-21 00:11:00,40.0,34.0,29.85,SE,125,3.0,12.0,78,0.00,,,0.16,,2013-02-21 06:11:00,
2013-02-21 00:21:00,40.0,34.0,29.85,SE,125,3.0,12.0,78,0.00,,,0.16,,2013-02-21 06:21:00,
2013-02-21 00:31:00,40.0,34.0,29.84,East,92,5.0,13.0,78,0.00,,,0.16,,2013-02-21 06:31:00,
2013-02-21 00:41:00,40.0,34.0,29.83,North,6,6.0,14.0,78,0.00,,,0.16,,2013-02-21 06:41:00,
2013-02-21 00:51:00,40.0,34.0,29.83,North,6,6.0,14.0,78,0.00,,,0.16,,2013-02-21 06:51:00,
2013-02-21 01:01:00,40.0,34.0,29.83,NE,34,3.0,12.0,79,0.00,,,0.16,,2013-02-21 07:01:00,
2013-02-21 01:11:00,40.0,34.0,29.82,East,84,3.0,10.0,79,0.00,,,0.16,,2013-02-21 07:11:00,
2013-02-21 01:21:00,40.0,34.0,29.82,East,84,3.0,10.0,79,0.00,,,0.16,,2013-02-21 07:21:00,
2013-02-21 01:32:00,40.0,34.0,29.83,NE,46,3.0,10.0,79,0.00,,,0.16,,2013-02-21 07:32:00,
2013-02-21 01:42:00,40.0,34.0,29.82,ENE,63,4.0,10.0,80,0.00,,,0.16,,2013-02-21 07:42:00,
2013-02-21 01:52:00,40.0,34.0,29.82,ENE,63,4.0,10.0,80,0.00,,,0.16,,2013-02-21 07:52:00,
2013-02-21 02:01:00,41.0,35.0,29.82,East,84,4.0,11.0,80,0.00,,,0.16,,2013-02-21 08:01:00,
2013-02-21 02:11:00,41.0,36.0,29.82,North,354,1.0,9.0,81,0.00,,,0.16,,2013-02-21 08:11:00,
2013-02-21 02:21:00,41.0,36.0,29.82,North,354,1.0,9.0,81,0.00,,,0.16,,2013-02-21 08:21:00,
2013-02-21 02:32:00,41.0,36.0,29.83,ENE,63,1.0,9.0,82,0.00,,,0.15,,2013-02-21 08:32:00,
2013-02-21 02:41:00,41.0,36.0,29.83,ESE,109,1.0,9.0,82,0.00,,,0.15,,2013-02-21 08:41:00,
2013-02-21 02:52:00,41.0,36.0,29.83,ESE,109,1.0,9.0,82,0.00,,,0.15,,2013-02-21 08:52:00,
2013-02-21 03:01:00,41.0,37.0,29.82,NE,47,1.0,8.0,84,0.00,,,0.15,,2013-02-21 09:01:00,
2013-02-21 03:11:00,40.0,36.0,29.81,NE,38,0.0,3.0,86,0.00,,,0.15,,2013-02-21 09:11:00,
2013-02-21 03:22:00,40.0,36.0,29.81,NE,38,0.0,3.0,86,0.00,,,0.15,,2013-02-21 09:22:00,
2013-02-21 03:31:00,41.0,37.0,29.80,East,88,4.0,8.0,85,0.00,,,0.10,,2013-02-21 09:31:00,
2013-02-21 03:41:00,41.0,37.0,29.77,ENE,58,2.0,12.0,86,0.00,,,0.10,,2013-02-21 09:41:00,
2013-02-21 03:51:00,41.0,37.0,29.77,ENE,58,2.0,12.0,86,0.00,,,0.10,,2013-02-21 09:51:00,
2013-02-21 04:01:00,41.0,37.0,29.75,East,89,3.0,11.0,85,0.00,,,0.10,,2013-02-21 10:01:00,
2013-02-21 04:11:00,41.0,37.0,29.75,East,89,3.0,11.0,85,0.00,,,0.10,,2013-02-21 10:11:00,
2013-02-21 04:21:00,42.0,38.0,29.75,ESE,103,5.0,12.0,85,0.00,,,0.10,,2013-02-21 10:21:00,
2013-02-21 04:31:00,42.0,38.0,29.75,NE,43,3.0,11.0,84,0.00,,,0.09,,2013-02-21 10:31:00,
2013-02-21 04:41:00,43.0,38.0,29.74,ENE,68,6.0,14.0,84,0.00,,,0.09,,2013-02-21 10:41:00,
2013-02-21 04:51:00,43.0,38.0,29.74,ENE,68,6.0,14.0,84,0.00,,,0.09,,2013-02-21 10:51:00,
2013-02-21 05:01:00,43.0,38.0,29.73,ENE,72,7.0,13.0,83,0.00,,,0.09,,2013-02-21 11:01:00,
2013-02-21 05:11:00,43.0,38.0,29.73,ENE,72,7.0,13.0,83,0.00,,,0.09,,2013-02-21 11:11:00,
2013-02-21 05:21:00,43.0,38.0,29.71,NNE,28,6.0,13.0,83,0.00,,,0.09,,2013-02-21 11:21:00,
2013-02-21 05:31:00,43.0,38.0,29.71,East,83,7.0,18.0,83,0.00,,,0.09,,2013-02-21 11:31:00,
2013-02-21 05:41:00,43.0,38.0,29.70,ESE,110,7.0,15.0,83,0.00,,,0.09,,2013-02-21 11:41:00,
2013-02-21 05:51:00,43.0,38.0,29.70,ESE,110,7.0,15.0,83,0.00,,,0.09,,2013-02-21 11:51:00,
2013-02-21 06:01:00,43.0,39.0,29.69,ESE,117,8.0,13.0,85,0.00,,,0.09,,2013-02-21 12:01:00,
2013-02-21 06:11:00,43.0,39.0,29.70,SE,128,3.0,12.0,85,0.00,,,0.09,,2013-02-21 12:11:00,
2013-02-21 06:21:00,43.0,39.0,29.70,SE,128,3.0,12.0,85,0.00,,,0.09,,2013-02-21 12:21:00,
2013-02-21 06:32:00,44.0,39.0,29.70,East,81,2.0,14.0,84,0.00,,,0.08,,2013-02-21 12:32:00,
2013-02-21 06:42:00,44.0,39.0,29.69,East,82,5.0,16.0,84,0.00,,,0.08,,2013-02-21 12:42:00,
2013-02-21 06:52:00,44.0,39.0,29.69,East,82,5.0,16.0,84,0.00,,,0.08,,2013-02-21 12:52:00,
2013-02-21 07:01:00,44.0,40.0,29.68,NE,46,5.0,12.0,85,0.00,,,0.08,,2013-02-21 13:01:00,
2013-02-21 07:12:00,44.0,40.0,29.68,ESE,122,5.0,18.0,86,0.00,,,0.08,,2013-02-21 13:12:00,
2013-02-21 07:22:00,44.0,40.0,29.68,ESE,122,5.0,18.0,86,0.00,,,0.08,,2013-02-21 13:22:00,
2013-02-21 07:32:00,45.0,41.0,29.67,East,91,4.0,16.0,87,0.00,,,0.04,,2013-02-21 13:32:00,
2013-02-21 07:41:00,45.0,42.0,29.67,NE,37,5.0,12.0,88,0.00,,,0.04,,2013-02-21 13:41:00,
2013-02-21 07:51:00,45.0,42.0,29.67,NE,37,5.0,12.0,88,0.00,,,0.04,,2013-02-21 13:51:00,
2013-02-21 08:02:00,45.0,42.0,29.67,East,80,4.0,12.0,89,0.00,,,0.04,,2013-02-21 14:02:00,
2013-02-21 08:11:00,45.0,42.0,29.67,East,80,4.0,12.0,89,0.00,,,0.04,,2013-02-21 14:11:00,
2013-02-21 08:21:00,45.0,42.0,29.68,East,97,3.0,11.0,90,0.00,,,0.04,,2013-02-21 14:21:00,
2013-02-21 08:32:00,46.0,43.0,29.80,NW,307,2.0,10.0,90,0.00,,,0.04,,2013-02-21 14:32:00,
2013-02-21 08:41:00,45.0,43.0,29.80,WNW,282,0.0,6.0,91,0.03,,,0.07,,2013-02-21 14:41:00,
2013-02-21 08:52:00,45.0,43.0,29.80,WNW,282,0.0,6.0,91,0.03,,,0.07,,2013-02-21 14:52:00,
2013-02-21 09:01:00,45.0,43.0,29.81,WNW,302,0.0,5.0,93,0.11,,,0.15,,2013-02-21 15:01:00,
2013-02-21 09:12:00,45.0,43.0,29.80,NE,39,0.0,4.0,94,0.14,,,0.18,,2013-02-21 15:12:00,
2013-02-21 09:21:00,45.0,43.0,29.80,NE,39,0.0,4.0,94,0.14,,,0.18,,2013-02-21 15:21:00,
2013-02-21 09:32:00,45.0,43.0,29.79,NNW,340,0.0,3.0,94,0.14,,,0.16,,2013-02-21 15:32:00,
2013-02-21 09:42:00,45.0,43.0,29.78,ENE,74,0.0,4.0,94,0.11,,,0.16,,2013-02-21 15:42:00,
2013-02-21 09:51:00,45.0,43.0,29.78,ENE,74,0.0,4.0,94,0.11,,,0.16,,2013-02-21 15:51:00,
2013-02-21 10:01:00,45.0,43.0,29.77,WSW,257,0.0,4.0,94,0.03,,,0.16,,2013-02-21 16:01:00,
2013-02-21 10:12:00,46.0,44.0,29.77,NNW,330,0.0,4.0,94,0.00,,,0.16,,2013-02-21 16:12:00,
2013-02-21 10:21:00,46.0,44.0,29.77,NNW,330,0.0,4.0,94,0.00,,,0.16,,2013-02-21 16:21:00,
2013-02-21 10:32:00,48.0,46.0,29.76,NE,37,1.0,4.0,94,0.00,,,0.16,,2013-02-21 16:32:00,
2013-02-21 10:42:00,49.0,47.0,29.77,East,79,0.0,3.0,92,0.00,,,0.16,,2013-02-21 16:42:00,
2013-02-21 10:52:00,49.0,47.0,29.77,East,79,0.0,3.0,92,0.00,,,0.16,,2013-02-21 16:52:00,
2013-02-21 11:01:00,50.0,47.0,29.78,NW,311,0.0,1.0,89,0.00,,,0.16,,2013-02-21 17:01:00,
2013-02-21 11:11:00,51.0,47.0,29.77,South,169,0.0,3.0,87,0.00,,,0.16,,2013-02-21 17:11:00,
2013-02-21 11:21:00,51.0,47.0,29.77,South,169,0.0,3.0,87,0.00,,,0.16,,2013-02-21 17:21:00,
2013-02-21 11:32:00,52.0,47.0,29.78,SW,232,0.0,3.0,84,0.00,,,0.16,,2013-02-21 17:32:00,
2013-02-21 11:42:00,53.0,48.0,29.79,SSW,207,0.0,3.0,84,0.00,,,0.16,,2013-02-21 17:42:00,
2013-02-21 11:52:00,53.0,48.0,29.79,SSW,207,0.0,3.0,84,0.00,,,0.16,,2013-02-21 17:52:00,
2013-02-21 12:01:00,53.0,48.0,29.80,SSW,201,2.0,6.0,82,0.00,,,0.16,,2013-02-21 18:01:00,
2013-02-21 12:11:00,54.0,48.0,29.78,WSW,245,0.0,6.0,81,0.00,,,0.16,,2013-02-21 18:11:00,
2013-02-21 12:22:00,54.0,48.0,29.78,WSW,245,0.0,6.0,81,0.00,,,0.16,,2013-02-21 18:22:00,
2013-02-21 12:31:00,54.0,48.0,29.78,South,174,0.0,5.0,80,0.00,,,0.15,,2013-02-21 18:31:00,
2013-02-21 12:42:00,54.0,48.0,29.78,South,174,0.0,5.0,80,0.00,,,0.15,,2013-02-21 18:42:00,
2013-02-21 12:52:00,54.0,47.0,29.78,SW,219,1.0,7.0,78,0.00,,,0.15,,2013-02-21 18:52:00,
2013-02-21 13:01:00,54.0,47.0,29.77,WSW,240,0.0,10.0,77,0.00,,,0.15,,2013-02-21 19:01:00,
2013-02-21 13:12:00,54.0,47.0,29.77,WSW,240,0.0,10.0,77,0.00,,,0.15,,2013-02-21 19:12:00,
2013-02-21 13:21:00,56.0,47.0,29.76,WSW,243,4.0,12.0,71,0.00,,,0.15,,2013-02-21 19:21:00,
2013-02-21 13:31:00,57.0,48.0,29.75,WNW,293,0.0,8.0,72,0.00,,,0.14,,2013-02-21 19:31:00,
2013-02-21 13:41:00,57.0,48.0,29.75,WNW,293,0.0,8.0,72,0.00,,,0.14,,2013-02-21 19:41:00,
2013-02-21 13:52:00,58.0,46.0,29.75,WSW,248,4.0,11.0,64,0.00,,,0.14,,2013-02-21 19:52:00,
2013-02-21 14:01:00,59.0,47.0,29.74,SE,130,1.0,9.0,64,0.00,,,0.14,,2013-02-21 20:01:00,
2013-02-21 14:11:00,60.0,44.0,29.74,West,262,1.0,10.0,55,0.00,,,0.14,,2013-02-21 20:11:00,
2013-02-21 14:21:00,60.0,44.0,29.74,West,262,1.0,10.0,55,0.00,,,0.14,,2013-02-21 20:21:00,
2013-02-21 14:31:00,61.0,39.0,29.74,West,281,2.0,9.0,44,0.00,,,0.14,,2013-02-21 20:31:00,
2013-02-21 14:53:00,61.0,38.0,29.73,NW,309,1.0,8.0,43,0.00,,,0.14,,2013-02-21 20:53:00,
2013-02-21 15:02:00,62.0,39.0,29.73,SW,229,0.0,14.0,43,0.00,,,0.14,,2013-02-21 21:02:00,
2013-02-21 15:11:00,62.0,40.0,29.73,WSW,254,0.0,4.0,44,0.00,,,0.14,,2013-02-21 21:11:00,
2013-02-21 15:21:00,62.0,40.0,29.73,WSW,254,0.0,4.0,44,0.00,,,0.14,,2013-02-21 21:21:00,
2013-02-21 15:31:00,63.0,40.0,29.73,WSW,240,2.0,7.0,43,0.00,,,0.14,,2013-02-21 21:31:00,
2013-02-21 15:42:00,63.0,40.0,29.74,NW,308,1.0,4.0,43,0.00,,,0.14,,2013-02-21 21:42:00,
2013-02-21 15:52:00,63.0,40.0,29.74,NW,308,1.0,4.0,43,0.00,,,0.14,,2013-02-21 21:52:00,
2013-02-21 16:01:00,64.0,41.0,29.74,NW,315,1.0,6.0,43,0.00,,,0.14,,2013-02-21 22:01:00,
2013-02-21 16:11:00,64.0,41.0,29.74,WNW,284,0.0,5.0,43,0.00,,,0.14,,2013-02-21 22:11:00,
2013-02-21 16:21:00,64.0,41.0,29.74,WNW,284,0.0,5.0,43,0.00,,,0.14,,2013-02-21 22:21:00,
2013-02-21 16:31:00,64.0,40.0,29.75,SE,137,2.0,9.0,41,0.00,,,0.14,,2013-02-21 22:31:00,
2013-02-21 16:42:00,65.0,40.0,29.75,SW,232,0.0,4.0,40,0.00,,,0.14,,2013-02-21 22:42:00,
2013-02-21 16:52:00,65.0,40.0,29.75,SW,232,0.0,4.0,40,0.00,,,0.14,,2013-02-21 22:52:00,
2013-02-21 17:01:00,65.0,39.0,29.75,SSW,213,1.0,6.0,38,0.00,,,0.14,,2013-02-21 23:01:00,
2013-02-21 17:11:00,65.0,39.0,29.75,SSW,213,1.0,6.0,38,0.00,,,0.14,,2013-02-21 23:11:00,
2013-02-21 17:21:00,66.0,33.0,29.76,West,276,2.0,6.0,29,0.00,,,0.14,,2013-02-21 23:21:00,
2013-02-21 17:31:00,65.0,31.0,29.77,NNW,335,1.0,13.0,28,0.00,,,0.14,,2013-02-21 23:31:00,
2013-02-21 17:41:00,65.0,31.0,29.77,NNW,335,1.0,13.0,28,0.00,,,0.14,,2013-02-21 23:41:00,
2013-02-21 17:52:00,64.0,31.0,29.76,West,269,1.0,7.0,29,0.00,,,0.14,,2013-02-21 23:52:00,
2013-02-21 18:01:00,64.0,32.0,29.77,SSW,207,2.0,11.0,30,0.00,,,0.14,,2013-02-22 00:01:00,
2013-02-21 18:11:00,64.0,32.0,29.77,SSW,207,2.0,11.0,30,0.00,,,0.14,,2013-02-22 00:11:00,
2013-02-21 18:21:00,63.0,32.0,29.78,West,264,4.0,12.0,31,0.00,,,0.14,,2013-02-22 00:21:00,
2013-02-21 18:31:00,62.0,33.0,29.80,WNW,284,1.0,6.0,34,0.00,,,0.14,,2013-02-22 00:31:00,
2013-02-21 18:41:00,62.0,33.0,29.80,WNW,284,1.0,6.0,34,0.00,,,0.14,,2013-02-22 00:41:00,
2013-02-21 18:52:00,61.0,34.0,29.81,West,278,0.0,3.0,36,0.00,,,0.14,,2013-02-22 00:52:00,
2013-02-21 19:01:00,60.0,34.0,29.82,West,269,0.0,2.0,38,0.00,,,0.14,,2013-02-22 01:01:00,
2013-02-21 19:11:00,60.0,34.0,29.82,West,269,0.0,2.0,38,0.00,,,0.14,,2013-02-22 01:11:00,
2013-02-21 19:21:00,60.0,36.0,29.83,NNW,347,0.0,2.0,40,0.00,,,0.14,,2013-02-22 01:21:00,
2013-02-21 19:32:00,59.0,35.0,29.83,WSW,253,0.0,3.0,41,0.00,,,0.14,,2013-02-22 01:32:00,
2013-02-21 19:42:00,58.0,36.0,29.84,WSW,257,0.0,1.0,43,0.00,,,0.14,,2013-02-22 01:42:00,
2013-02-21 19:52:00,58.0,36.0,29.84,WSW,257,0.0,1.0,43,0.00,,,0.14,,2013-02-22 01:52:00,
2013-02-21 20:02:00,58.0,36.0,29.84,WNW,293,0.0,4.0,43,0.00,,,0.14,,2013-02-22 02:02:00,
2013-02-21 20:11:00,57.0,35.0,29.85,SSW,210,0.0,2.0,44,0.00,,,0.14,,2013-02-22 02:11:00,
2013-02-21 20:21:00,57.0,35.0,29.85,SSW,210,0.0,2.0,44,0.00,,,0.14,,2013-02-22 02:21:00,
2013-02-21 20:31:00,57.0,35.0,29.85,SSW,210,0.0,2.0,44,0.00,,,0.14,,2013-02-22 02:31:00,
2013-02-21 20:42:00,56.0,36.0,29.86,SW,216,0.0,0.0,46,0.00,,,0.14,,2013-02-22 02:42:00,
2013-02-21 20:52:00,56.0,36.0,29.86,SW,216,0.0,0.0,46,0.00,,,0.14,,2013-02-22 02:52:00,
2013-02-21 21:01:00,57.0,36.0,29.88,WSW,243,2.0,20.0,46,0.00,,,0.14,,2013-02-22 03:01:00,
2013-02-21 21:11:00,57.0,36.0,29.88,WSW,243,2.0,20.0,46,0.00,,,0.14,,2013-02-22 03:11:00,
2013-02-21 21:21:00,57.0,36.0,29.88,WSW,243,2.0,20.0,46,0.00,,,0.14,,2013-02-22 03:21:00,
2013-02-21 21:52:00,50.0,39.0,29.93,NW,312,3.0,12.0,67,0.00,,,0.14,,2013-02-22 03:52:00,
2013-02-21 22:02:00,50.0,39.0,29.94,WNW,287,2.0,12.0,67,0.00,,,0.14,,2013-02-22 04:02:00,
2013-02-21 22:11:00,49.0,39.0,29.95,SW,235,1.0,9.0,67,0.00,,,0.14,,2013-02-22 04:11:00,
2013-02-21 22:21:00,49.0,39.0,29.95,SW,235,1.0,9.0,67,0.00,,,0.14,,2013-02-22 04:21:00,
2013-02-21 22:32:00,48.0,38.0,29.96,WNW,300,1.0,5.0,68,0.00,,,0.14,,2013-02-22 04:32:00,
2013-02-21 22:42:00,48.0,39.0,29.96,NW,314,0.0,11.0,70,0.00,,,0.14,,2013-02-22 04:42:00,
2013-02-21 22:52:00,48.0,39.0,29.96,NW,314,0.0,11.0,70,0.00,,,0.14,,2013-02-22 04:52:00,
2013-02-21 23:01:00,47.0,38.0,29.97,NNW,346,0.0,4.0,71,0.00,,,0.14,,2013-02-22 05:01:00,
2013-02-21 23:12:00,46.0,37.0,29.98,WNW,300,1.0,5.0,72,0.00,,,0.14,,2013-02-22 05:12:00,
2013-02-21 23:22:00,46.0,37.0,29.98,WNW,300,1.0,5.0,72,0.00,,,0.14,,2013-02-22 05:22:00,
2013-02-21 23:32:00,46.0,38.0,29.98,East,79,0.0,6.0,73,0.00,,,0.14,,2013-02-22 05:32:00,
2013-02-21 23:41:00,45.0,37.0,29.98,WNW,293,0.0,8.0,73,0.00,,,0.14,,2013-02-22 05:41:00,
2013-02-21 23:52:00,45.0,37.0,29.98,WNW,293,0.0,8.0,73,0.00,,,0.14,,2013-02-22 05:52:00,